sensor_id;sensor_type;location;lat;lon;timestamp;temperature;humidity
71839;SHT31;59687;37.520;15.068;2022-07-17T00:01:49;24.94;49.82
71839;SHT31;59687;37.520;15.068;2022-07-17T00:04:16;24.82;50.39
71839;SHT31;59687;37.520;15.068;2022-07-17T00:06:43;24.69;51.01
71839;SHT31;59687;37.520;15.068;2022-07-17T00:09:10;24.80;50.64
71839;SHT31;59687;37.520;15.068;2022-07-17T00:11:37;24.96;50.94
71839;SHT31;59687;37.520;15.068;2022-07-17T00:14:04;24.93;51.31
71839;SHT31;59687;37.520;15.068;2022-07-17T00:16:33;24.84;52.26
71839;SHT31;59687;37.520;15.068;2022-07-17T00:19:00;24.75;52.65
71839;SHT31;59687;37.520;15.068;2022-07-17T00:21:30;24.65;53.03
71839;SHT31;59687;37.520;15.068;2022-07-17T00:23:57;24.56;53.68
71839;SHT31;59687;37.520;15.068;2022-07-17T00:26:24;24.52;53.49
71839;SHT31;59687;37.520;15.068;2022-07-17T00:28:51;24.56;53.46
71839;SHT31;59687;37.520;15.068;2022-07-17T00:31:20;24.73;53.33
71839;SHT31;59687;37.520;15.068;2022-07-17T00:33:47;24.83;53.01
71839;SHT31;59687;37.520;15.068;2022-07-17T00:36:14;24.89;52.04
71839;SHT31;59687;37.520;15.068;2022-07-17T00:38:41;24.98;51.43
71839;SHT31;59687;37.520;15.068;2022-07-17T00:41:08;24.76;51.44
71839;SHT31;59687;37.520;15.068;2022-07-17T00:43:36;24.56;51.65
71839;SHT31;59687;37.520;15.068;2022-07-17T00:46:03;24.41;51.62
71839;SHT31;59687;37.520;15.068;2022-07-17T00:48:32;24.32;51.99
71839;SHT31;59687;37.520;15.068;2022-07-17T00:50:59;24.24;52.13
71839;SHT31;59687;37.520;15.068;2022-07-17T00:53:26;24.25;52.06
71839;SHT31;59687;37.520;15.068;2022-07-17T00:55:55;24.45;51.19
71839;SHT31;59687;37.520;15.068;2022-07-17T00:58:24;24.38;51.49
71839;SHT31;59687;37.520;15.068;2022-07-17T01:00:53;24.41;51.05
71839;SHT31;59687;37.520;15.068;2022-07-17T01:03:23;24.48;50.97
71839;SHT31;59687;37.520;15.068;2022-07-17T01:05:51;24.31;51.29
71839;SHT31;59687;37.520;15.068;2022-07-17T01:08:20;24.20;51.63
71839;SHT31;59687;37.520;15.068;2022-07-17T01:10:47;24.06;51.58
71839;SHT31;59687;37.520;15.068;2022-07-17T01:13:14;23.99;52.24
71839;SHT31;59687;37.520;15.068;2022-07-17T01:15:42;24.06;52.15
71839;SHT31;59687;37.520;15.068;2022-07-17T01:18:13;24.16;51.83
71839;SHT31;59687;37.520;15.068;2022-07-17T01:20:43;24.52;49.89
71839;SHT31;59687;37.520;15.068;2022-07-17T01:23:12;24.53;49.28
71839;SHT31;59687;37.520;15.068;2022-07-17T01:25:40;24.29;49.83
71839;SHT31;59687;37.520;15.068;2022-07-17T01:28:07;24.11;50.18
71839;SHT31;59687;37.520;15.068;2022-07-17T01:30:34;23.99;50.40
71839;SHT31;59687;37.520;15.068;2022-07-17T01:33:04;23.86;50.18
71839;SHT31;59687;37.520;15.068;2022-07-17T01:35:31;23.89;49.75
71839;SHT31;59687;37.520;15.068;2022-07-17T01:37:58;23.96;49.67
71839;SHT31;59687;37.520;15.068;2022-07-17T01:40:25;24.00;49.80
71839;SHT31;59687;37.520;15.068;2022-07-17T01:42:52;24.10;49.52
71839;SHT31;59687;37.520;15.068;2022-07-17T01:45:19;23.97;49.87
71839;SHT31;59687;37.520;15.068;2022-07-17T01:47:47;23.87;50.06
71839;SHT31;59687;37.520;15.068;2022-07-17T01:50:16;23.77;50.51
71839;SHT31;59687;37.520;15.068;2022-07-17T01:52:44;23.70;50.36
71839;SHT31;59687;37.520;15.068;2022-07-17T01:55:13;23.72;50.08
71839;SHT31;59687;37.520;15.068;2022-07-17T01:57:42;23.77;49.69
71839;SHT31;59687;37.520;15.068;2022-07-17T02:00:15;23.93;49.70
71839;SHT31;59687;37.520;15.068;2022-07-17T02:02:44;23.93;49.56
71839;SHT31;59687;37.520;15.068;2022-07-17T02:05:11;23.84;49.78
71839;SHT31;59687;37.520;15.068;2022-07-17T02:07:39;23.77;49.82
71839;SHT31;59687;37.520;15.068;2022-07-17T02:10:09;23.70;50.37
71839;SHT31;59687;37.520;15.068;2022-07-17T02:12:37;23.61;50.62
71839;SHT31;59687;37.520;15.068;2022-07-17T02:15:05;23.61;50.54
71839;SHT31;59687;37.520;15.068;2022-07-17T02:17:32;23.65;50.35
71839;SHT31;59687;37.520;15.068;2022-07-17T02:20:00;23.82;49.92
71839;SHT31;59687;37.520;15.068;2022-07-17T02:22:29;23.92;49.70
71839;SHT31;59687;37.520;15.068;2022-07-17T02:24:56;23.86;50.00
71839;SHT31;59687;37.520;15.068;2022-07-17T02:27:24;23.76;50.02
71839;SHT31;59687;37.520;15.068;2022-07-17T02:29:52;23.67;50.09
71839;SHT31;59687;37.520;15.068;2022-07-17T02:32:19;23.59;50.26
71839;SHT31;59687;37.520;15.068;2022-07-17T02:34:48;23.52;50.52
71839;SHT31;59687;37.520;15.068;2022-07-17T02:37:14;23.69;49.97
71839;SHT31;59687;37.520;15.068;2022-07-17T02:39:45;23.69;49.48
71839;SHT31;59687;37.520;15.068;2022-07-17T02:42:22;24.00;48.56
71839;SHT31;59687;37.520;15.068;2022-07-17T02:44:54;23.90;48.83
71839;SHT31;59687;37.520;15.068;2022-07-17T02:47:30;23.82;48.97
71839;SHT31;59687;37.520;15.068;2022-07-17T02:49:58;23.76;49.20
71839;SHT31;59687;37.520;15.068;2022-07-17T02:55:22;23.61;50.33
71839;SHT31;59687;37.520;15.068;2022-07-17T02:57:52;23.75;50.19
71839;SHT31;59687;37.520;15.068;2022-07-17T03:00:20;23.72;50.69
71839;SHT31;59687;37.520;15.068;2022-07-17T03:02:48;23.77;51.04
71839;SHT31;59687;37.520;15.068;2022-07-17T03:05:16;23.75;50.54
71839;SHT31;59687;37.520;15.068;2022-07-17T03:07:44;23.65;50.98
71839;SHT31;59687;37.520;15.068;2022-07-17T03:10:14;23.56;51.11
71839;SHT31;59687;37.520;15.068;2022-07-17T03:12:42;23.49;51.56
71839;SHT31;59687;37.520;15.068;2022-07-17T03:15:10;23.42;52.74
71839;SHT31;59687;37.520;15.068;2022-07-17T03:17:40;23.83;50.74
71839;SHT31;59687;37.520;15.068;2022-07-17T03:20:08;24.07;49.11
71839;SHT31;59687;37.520;15.068;2022-07-17T03:22:36;24.27;48.80
71839;SHT31;59687;37.520;15.068;2022-07-17T03:25:03;23.97;49.53
71839;SHT31;59687;37.520;15.068;2022-07-17T03:27:33;23.79;49.78
71839;SHT31;59687;37.520;15.068;2022-07-17T03:30:01;23.62;49.50
71839;SHT31;59687;37.520;15.068;2022-07-17T03:32:28;23.52;49.41
71839;SHT31;59687;37.520;15.068;2022-07-17T03:34:56;23.42;48.51
71839;SHT31;59687;37.520;15.068;2022-07-17T03:37:24;23.48;48.56
71839;SHT31;59687;37.520;15.068;2022-07-17T03:39:50;23.66;47.72
71839;SHT31;59687;37.520;15.068;2022-07-17T03:42:17;23.73;47.45
71839;SHT31;59687;37.520;15.068;2022-07-17T03:44:45;23.65;47.99
71839;SHT31;59687;37.520;15.068;2022-07-17T03:47:12;23.61;47.86
71839;SHT31;59687;37.520;15.068;2022-07-17T03:49:39;23.56;48.21
71839;SHT31;59687;37.520;15.068;2022-07-17T03:52:08;23.52;48.29
71839;SHT31;59687;37.520;15.068;2022-07-17T03:54:36;23.58;48.70
71839;SHT31;59687;37.520;15.068;2022-07-17T03:57:03;23.70;48.19
71839;SHT31;59687;37.520;15.068;2022-07-17T03:59:30;23.92;47.28
71839;SHT31;59687;37.520;15.068;2022-07-17T04:02:00;23.84;47.85
71839;SHT31;59687;37.520;15.068;2022-07-17T04:04:27;23.80;47.69
71839;SHT31;59687;37.520;15.068;2022-07-17T04:06:54;23.80;47.42
71839;SHT31;59687;37.520;15.068;2022-07-17T04:09:21;23.79;47.90
71839;SHT31;59687;37.520;15.068;2022-07-17T04:11:48;23.77;47.95
71839;SHT31;59687;37.520;15.068;2022-07-17T04:14:15;23.79;47.77
71839;SHT31;59687;37.520;15.068;2022-07-17T04:16:42;24.03;47.52
71839;SHT31;59687;37.520;15.068;2022-07-17T04:19:10;24.17;47.27
71839;SHT31;59687;37.520;15.068;2022-07-17T04:21:36;24.28;46.97
71839;SHT31;59687;37.520;15.068;2022-07-17T04:24:05;24.29;46.99
71839;SHT31;59687;37.520;15.068;2022-07-17T04:26:32;24.31;46.78
71839;SHT31;59687;37.520;15.068;2022-07-17T04:28:59;24.28;47.35
71839;SHT31;59687;37.520;15.068;2022-07-17T04:31:25;24.29;47.76
71839;SHT31;59687;37.520;15.068;2022-07-17T04:33:53;24.32;47.55
71839;SHT31;59687;37.520;15.068;2022-07-17T04:36:20;24.41;47.43
71839;SHT31;59687;37.520;15.068;2022-07-17T04:38:49;24.58;47.55
71839;SHT31;59687;37.520;15.068;2022-07-17T04:41:16;24.70;46.93
71839;SHT31;59687;37.520;15.068;2022-07-17T04:43:43;24.84;47.10
71839;SHT31;59687;37.520;15.068;2022-07-17T04:46:10;25.21;46.44
71839;SHT31;59687;37.520;15.068;2022-07-17T04:48:37;25.75;45.19
71839;SHT31;59687;37.520;15.068;2022-07-17T04:51:04;26.28;44.54
71839;SHT31;59687;37.520;15.068;2022-07-17T04:53:31;26.70;43.48
71839;SHT31;59687;37.520;15.068;2022-07-17T04:55:59;27.28;42.60
71839;SHT31;59687;37.520;15.068;2022-07-17T04:58:26;27.58;42.68
71839;SHT31;59687;37.520;15.068;2022-07-17T05:00:53;27.79;41.64
71839;SHT31;59687;37.520;15.068;2022-07-17T05:03:20;27.79;41.41
71839;SHT31;59687;37.520;15.068;2022-07-17T05:05:48;27.97;41.29
71839;SHT31;59687;37.520;15.068;2022-07-17T05:08:15;28.36;42.48
71839;SHT31;59687;37.520;15.068;2022-07-17T05:10:43;28.96;43.37
71839;SHT31;59687;37.520;15.068;2022-07-17T05:13:09;29.33;41.96
71839;SHT31;59687;37.520;15.068;2022-07-17T05:15:36;29.73;41.51
71839;SHT31;59687;37.520;15.068;2022-07-17T05:18:06;29.63;40.34
71839;SHT31;59687;37.520;15.068;2022-07-17T05:20:33;29.59;41.43
71839;SHT31;59687;37.520;15.068;2022-07-17T05:23:02;29.77;41.38
71839;SHT31;59687;37.520;15.068;2022-07-17T05:25:28;30.00;41.14
71839;SHT31;59687;37.520;15.068;2022-07-17T05:27:56;30.36;41.59
71839;SHT31;59687;37.520;15.068;2022-07-17T05:30:24;30.64;41.47
71839;SHT31;59687;37.520;15.068;2022-07-17T05:32:51;31.01;40.93
71839;SHT31;59687;37.520;15.068;2022-07-17T05:35:18;31.21;40.75
71839;SHT31;59687;37.520;15.068;2022-07-17T05:37:44;31.24;41.13
71839;SHT31;59687;37.520;15.068;2022-07-17T05:40:12;31.24;40.99
71839;SHT31;59687;37.520;15.068;2022-07-17T05:42:40;31.01;42.27
71839;SHT31;59687;37.520;15.068;2022-07-17T05:45:07;30.99;42.37
71839;SHT31;59687;37.520;15.068;2022-07-17T05:47:35;30.99;43.28
71839;SHT31;59687;37.520;15.068;2022-07-17T05:50:05;31.28;43.14
71839;SHT31;59687;37.520;15.068;2022-07-17T05:52:32;31.63;42.95
71839;SHT31;59687;37.520;15.068;2022-07-17T05:55:00;31.83;42.43
71839;SHT31;59687;37.520;15.068;2022-07-17T05:57:27;32.07;43.04
71839;SHT31;59687;37.520;15.068;2022-07-17T05:59:56;32.12;43.77
71839;SHT31;59687;37.520;15.068;2022-07-17T06:02:23;31.77;45.14
71839;SHT31;59687;37.520;15.068;2022-07-17T06:04:53;31.41;45.71
71839;SHT31;59687;37.520;15.068;2022-07-17T06:07:20;31.41;46.25
71839;SHT31;59687;37.520;15.068;2022-07-17T06:09:47;31.62;46.03
71839;SHT31;59687;37.520;15.068;2022-07-17T06:12:14;31.86;45.50
71839;SHT31;59687;37.520;15.068;2022-07-17T06:14:41;32.35;45.14
71839;SHT31;59687;37.520;15.068;2022-07-17T06:17:08;32.08;45.47
71839;SHT31;59687;37.520;15.068;2022-07-17T06:19:35;31.76;47.22
71839;SHT31;59687;37.520;15.068;2022-07-17T06:22:02;31.70;46.84
71839;SHT31;59687;37.520;15.068;2022-07-17T06:24:29;31.77;47.07
71839;SHT31;59687;37.520;15.068;2022-07-17T06:26:57;31.91;48.23
71839;SHT31;59687;37.520;15.068;2022-07-17T06:29:24;31.90;48.11
71839;SHT31;59687;37.520;15.068;2022-07-17T06:31:51;32.12;48.31
71839;SHT31;59687;37.520;15.068;2022-07-17T06:34:20;32.72;47.40
71839;SHT31;59687;37.520;15.068;2022-07-17T06:36:47;33.58;47.20
71839;SHT31;59687;37.520;15.068;2022-07-17T06:39:14;33.69;46.60
71839;SHT31;59687;37.520;15.068;2022-07-17T06:41:43;33.52;48.20
71839;SHT31;59687;37.520;15.068;2022-07-17T06:44:10;33.19;48.65
71839;SHT31;59687;37.520;15.068;2022-07-17T06:46:37;33.10;49.20
71839;SHT31;59687;37.520;15.068;2022-07-17T06:49:05;33.21;48.78
71839;SHT31;59687;37.520;15.068;2022-07-17T06:51:32;33.38;48.65
71839;SHT31;59687;37.520;15.068;2022-07-17T06:53:59;33.77;48.20
71839;SHT31;59687;37.520;15.068;2022-07-17T06:56:26;33.94;46.84
71839;SHT31;59687;37.520;15.068;2022-07-17T06:58:52;33.74;45.89
71839;SHT31;59687;37.520;15.068;2022-07-17T07:01:21;33.67;46.86
71839;SHT31;59687;37.520;15.068;2022-07-17T07:03:48;33.50;46.82
71839;SHT31;59687;37.520;15.068;2022-07-17T07:06:16;33.46;47.33
71839;SHT31;59687;37.520;15.068;2022-07-17T07:08:43;33.77;46.41
71839;SHT31;59687;37.520;15.068;2022-07-17T07:11:10;34.04;45.99
71839;SHT31;59687;37.520;15.068;2022-07-17T07:13:37;34.18;45.31
71839;SHT31;59687;37.520;15.068;2022-07-17T07:16:04;34.70;44.74
71839;SHT31;59687;37.520;15.068;2022-07-17T07:18:31;34.77;44.86
71839;SHT31;59687;37.520;15.068;2022-07-17T07:20:58;34.51;44.36
71839;SHT31;59687;37.520;15.068;2022-07-17T07:23:25;34.19;45.25
71839;SHT31;59687;37.520;15.068;2022-07-17T07:25:57;34.29;45.49
71839;SHT31;59687;37.520;15.068;2022-07-17T07:28:26;34.34;44.33
71839;SHT31;59687;37.520;15.068;2022-07-17T07:30:54;34.05;44.35
71839;SHT31;59687;37.520;15.068;2022-07-17T07:33:21;33.90;46.75
71839;SHT31;59687;37.520;15.068;2022-07-17T07:35:48;33.83;47.28
71839;SHT31;59687;37.520;15.068;2022-07-17T07:38:14;33.78;47.07
71839;SHT31;59687;37.520;15.068;2022-07-17T07:40:41;33.67;47.50
71839;SHT31;59687;37.520;15.068;2022-07-17T07:43:08;33.65;47.69
71839;SHT31;59687;37.520;15.068;2022-07-17T07:45:35;33.69;47.55
71839;SHT31;59687;37.520;15.068;2022-07-17T07:48:05;33.70;47.57
71839;SHT31;59687;37.520;15.068;2022-07-17T07:50:35;33.94;47.05
71839;SHT31;59687;37.520;15.068;2022-07-17T07:53:02;34.18;46.62
71839;SHT31;59687;37.520;15.068;2022-07-17T07:55:29;34.42;45.81
71839;SHT31;59687;37.520;15.068;2022-07-17T07:58:07;34.51;45.59
71839;SHT31;59687;37.520;15.068;2022-07-17T08:00:36;34.29;45.88
71839;SHT31;59687;37.520;15.068;2022-07-17T08:03:06;34.24;45.86
71839;SHT31;59687;37.520;15.068;2022-07-17T08:05:35;34.31;46.29
71839;SHT31;59687;37.520;15.068;2022-07-17T08:08:02;34.11;46.87
71839;SHT31;59687;37.520;15.068;2022-07-17T08:10:30;33.98;47.83
71839;SHT31;59687;37.520;15.068;2022-07-17T08:12:57;34.08;47.89
71839;SHT31;59687;37.520;15.068;2022-07-17T08:15:24;34.00;47.64
71839;SHT31;59687;37.520;15.068;2022-07-17T08:17:54;33.77;48.29
71839;SHT31;59687;37.520;15.068;2022-07-17T08:20:22;34.00;47.99
71839;SHT31;59687;37.520;15.068;2022-07-17T08:22:50;34.14;47.86
71839;SHT31;59687;37.520;15.068;2022-07-17T08:25:33;34.05;47.72
71839;SHT31;59687;37.520;15.068;2022-07-17T08:28:02;34.15;47.32
71839;SHT31;59687;37.520;15.068;2022-07-17T08:30:29;34.35;46.50
71839;SHT31;59687;37.520;15.068;2022-07-17T08:32:58;34.38;46.93
71839;SHT31;59687;37.520;15.068;2022-07-17T08:35:25;34.49;46.91
71839;SHT31;59687;37.520;15.068;2022-07-17T08:37:53;34.45;46.86
71839;SHT31;59687;37.520;15.068;2022-07-17T08:40:22;34.67;46.56
71839;SHT31;59687;37.520;15.068;2022-07-17T08:42:50;34.71;46.94
71839;SHT31;59687;37.520;15.068;2022-07-17T08:45:18;34.83;46.55
71839;SHT31;59687;37.520;15.068;2022-07-17T08:47:45;34.79;47.00
71839;SHT31;59687;37.520;15.068;2022-07-17T08:50:13;34.51;47.17
71839;SHT31;59687;37.520;15.068;2022-07-17T08:52:42;34.48;47.54
71839;SHT31;59687;37.520;15.068;2022-07-17T08:55:13;34.46;46.77
71839;SHT31;59687;37.520;15.068;2022-07-17T08:57:43;34.42;47.42
71839;SHT31;59687;37.520;15.068;2022-07-17T09:00:13;35.01;45.86
71839;SHT31;59687;37.520;15.068;2022-07-17T09:03:04;35.31;45.25
71839;SHT31;59687;37.520;15.068;2022-07-17T09:05:38;35.72;43.79
71839;SHT31;59687;37.520;15.068;2022-07-17T09:08:08;35.93;42.96
71839;SHT31;59687;37.520;15.068;2022-07-17T09:10:42;36.20;42.85
71839;SHT31;59687;37.520;15.068;2022-07-17T09:13:19;36.87;41.52
71839;SHT31;59687;37.520;15.068;2022-07-17T09:15:49;37.30;39.14
71839;SHT31;59687;37.520;15.068;2022-07-17T09:18:17;36.82;40.17
71839;SHT31;59687;37.520;15.068;2022-07-17T09:20:53;35.42;41.77
71839;SHT31;59687;37.520;15.068;2022-07-17T09:23:22;34.38;44.00
71839;SHT31;59687;37.520;15.068;2022-07-17T09:25:52;34.17;44.09
71839;SHT31;59687;37.520;15.068;2022-07-17T09:28:19;33.50;44.05
71839;SHT31;59687;37.520;15.068;2022-07-17T09:30:53;33.77;42.37
71839;SHT31;59687;37.520;15.068;2022-07-17T09:33:23;33.59;38.59
71839;SHT31;59687;37.520;15.068;2022-07-17T09:36:06;34.18;36.16
71839;SHT31;59687;37.520;15.068;2022-07-17T09:38:39;34.73;33.72
71839;SHT31;59687;37.520;15.068;2022-07-17T09:41:12;34.34;34.24
71839;SHT31;59687;37.520;15.068;2022-07-17T09:43:45;33.77;34.65
71839;SHT31;59687;37.520;15.068;2022-07-17T09:46:25;33.42;34.35
71839;SHT31;59687;37.520;15.068;2022-07-17T09:49:02;33.11;35.06
71839;SHT31;59687;37.520;15.068;2022-07-17T09:51:32;32.81;34.83
71839;SHT31;59687;37.520;15.068;2022-07-17T09:54:01;32.67;36.17
71839;SHT31;59687;37.520;15.068;2022-07-17T09:56:31;32.43;35.56
71839;SHT31;59687;37.520;15.068;2022-07-17T09:59:09;32.22;36.71
71839;SHT31;59687;37.520;15.068;2022-07-17T10:01:38;32.39;35.28
71839;SHT31;59687;37.520;15.068;2022-07-17T10:04:06;32.33;37.66
71839;SHT31;59687;37.520;15.068;2022-07-17T10:06:33;32.22;40.44
71839;SHT31;59687;37.520;15.068;2022-07-17T10:09:00;32.17;38.51
71839;SHT31;59687;37.520;15.068;2022-07-17T10:11:31;32.42;35.32
71839;SHT31;59687;37.520;15.068;2022-07-17T10:14:04;32.35;40.13
71839;SHT31;59687;37.520;15.068;2022-07-17T10:16:33;32.32;41.36
71839;SHT31;59687;37.520;15.068;2022-07-17T10:19:01;32.56;41.06
71839;SHT31;59687;37.520;15.068;2022-07-17T10:21:32;32.86;39.57
71839;SHT31;59687;37.520;15.068;2022-07-17T10:29:34;33.04;40.45
71839;SHT31;59687;37.520;15.068;2022-07-17T10:32:07;32.88;40.01
71839;SHT31;59687;37.520;15.068;2022-07-17T10:34:43;32.92;41.04
71839;SHT31;59687;37.520;15.068;2022-07-17T10:40:11;32.73;40.92
71839;SHT31;59687;37.520;15.068;2022-07-17T10:48:11;33.07;38.20
71839;SHT31;59687;37.520;15.068;2022-07-17T10:50:44;32.98;40.60
71839;SHT31;59687;37.520;15.068;2022-07-17T10:53:15;32.80;40.31
71839;SHT31;59687;37.520;15.068;2022-07-17T10:55:49;32.84;40.83
71839;SHT31;59687;37.520;15.068;2022-07-17T10:58:30;32.87;39.84
71839;SHT31;59687;37.520;15.068;2022-07-17T11:03:26;32.79;40.70
71839;SHT31;59687;37.520;15.068;2022-07-17T11:05:53;33.14;41.02
71839;SHT31;59687;37.520;15.068;2022-07-17T11:08:21;33.50;39.29
71839;SHT31;59687;37.520;15.068;2022-07-17T11:10:48;33.60;40.14
71839;SHT31;59687;37.520;15.068;2022-07-17T11:13:16;33.24;39.44
71839;SHT31;59687;37.520;15.068;2022-07-17T11:15:48;33.21;41.50
71839;SHT31;59687;37.520;15.068;2022-07-17T11:18:19;33.38;40.71
71839;SHT31;59687;37.520;15.068;2022-07-17T11:23:14;33.12;39.11
71839;SHT31;59687;37.520;15.068;2022-07-17T11:25:56;32.43;40.94
71839;SHT31;59687;37.520;15.068;2022-07-17T11:28:43;32.96;40.06
71839;SHT31;59687;37.520;15.068;2022-07-17T11:31:30;32.67;40.06
71839;SHT31;59687;37.520;15.068;2022-07-17T11:34:00;32.60;40.14
71839;SHT31;59687;37.520;15.068;2022-07-17T11:36:37;32.76;38.99
71839;SHT31;59687;37.520;15.068;2022-07-17T11:39:10;32.88;38.48
71839;SHT31;59687;37.520;15.068;2022-07-17T11:41:45;32.80;37.35
71839;SHT31;59687;37.520;15.068;2022-07-17T11:44:15;32.73;36.92
71839;SHT31;59687;37.520;15.068;2022-07-17T11:46:44;32.55;37.45
71839;SHT31;59687;37.520;15.068;2022-07-17T11:49:34;32.70;36.61
71839;SHT31;59687;37.520;15.068;2022-07-17T11:52:13;32.51;36.59
71839;SHT31;59687;37.520;15.068;2022-07-17T11:57:12;32.49;35.35
71839;SHT31;59687;37.520;15.068;2022-07-17T11:59:40;32.38;34.93
71839;SHT31;59687;37.520;15.068;2022-07-17T12:02:09;32.40;35.43
71839;SHT31;59687;37.520;15.068;2022-07-17T12:04:48;32.39;35.29
71839;SHT31;59687;37.520;15.068;2022-07-17T12:07:16;32.33;34.79
71839;SHT31;59687;37.520;15.068;2022-07-17T12:09:43;32.42;34.08
71839;SHT31;59687;37.520;15.068;2022-07-17T12:12:24;32.69;34.21
71839;SHT31;59687;37.520;15.068;2022-07-17T12:14:58;32.60;33.49
71839;SHT31;59687;37.520;15.068;2022-07-17T12:17:37;32.33;34.33
71839;SHT31;59687;37.520;15.068;2022-07-17T12:20:06;32.43;34.29
71839;SHT31;59687;37.520;15.068;2022-07-17T12:22:47;32.42;34.28
71839;SHT31;59687;37.520;15.068;2022-07-17T12:25:29;32.56;34.07
71839;SHT31;59687;37.520;15.068;2022-07-17T12:27:58;32.86;33.96
71839;SHT31;59687;37.520;15.068;2022-07-17T12:30:25;32.88;34.48
71839;SHT31;59687;37.520;15.068;2022-07-17T12:32:52;33.00;34.48
71839;SHT31;59687;37.520;15.068;2022-07-17T12:35:19;33.22;33.75
71839;SHT31;59687;37.520;15.068;2022-07-17T12:37:46;33.21;32.84
71839;SHT31;59687;37.520;15.068;2022-07-17T12:40:14;32.91;33.48
71839;SHT31;59687;37.520;15.068;2022-07-17T12:42:42;32.87;33.64
71839;SHT31;59687;37.520;15.068;2022-07-17T12:45:11;32.77;33.93
71839;SHT31;59687;37.520;15.068;2022-07-17T12:47:39;32.79;33.84
71839;SHT31;59687;37.520;15.068;2022-07-17T12:50:07;32.70;33.98
71839;SHT31;59687;37.520;15.068;2022-07-17T12:52:35;32.73;33.89
71839;SHT31;59687;37.520;15.068;2022-07-17T12:55:03;32.98;33.76
71839;SHT31;59687;37.520;15.068;2022-07-17T12:57:30;33.19;33.88
71839;SHT31;59687;37.520;15.068;2022-07-17T12:59:56;32.90;33.48
71839;SHT31;59687;37.520;15.068;2022-07-17T13:02:23;32.72;34.39
71839;SHT31;59687;37.520;15.068;2022-07-17T13:04:50;32.64;34.48
71839;SHT31;59687;37.520;15.068;2022-07-17T13:07:18;32.64;34.00
71839;SHT31;59687;37.520;15.068;2022-07-17T13:09:45;32.53;34.61
71839;SHT31;59687;37.520;15.068;2022-07-17T13:12:13;32.52;34.61
71839;SHT31;59687;37.520;15.068;2022-07-17T13:14:40;32.42;34.86
71839;SHT31;59687;37.520;15.068;2022-07-17T13:17:07;32.70;34.70
71839;SHT31;59687;37.520;15.068;2022-07-17T13:19:34;33.08;33.61
71839;SHT31;59687;37.520;15.068;2022-07-17T13:22:03;33.29;33.30
71839;SHT31;59687;37.520;15.068;2022-07-17T13:24:30;33.14;33.62
71839;SHT31;59687;37.520;15.068;2022-07-17T13:26:58;32.87;33.80
71839;SHT31;59687;37.520;15.068;2022-07-17T13:29:25;32.81;34.23
71839;SHT31;59687;37.520;15.068;2022-07-17T13:31:55;32.64;34.02
71839;SHT31;59687;37.520;15.068;2022-07-17T13:34:22;32.70;34.33
71839;SHT31;59687;37.520;15.068;2022-07-17T13:36:49;32.76;34.61
71839;SHT31;59687;37.520;15.068;2022-07-17T13:39:17;32.57;34.43
71839;SHT31;59687;37.520;15.068;2022-07-17T13:41:44;32.72;34.11
71839;SHT31;59687;37.520;15.068;2022-07-17T13:44:11;32.72;34.10
71839;SHT31;59687;37.520;15.068;2022-07-17T13:46:38;32.73;34.15
71839;SHT31;59687;37.520;15.068;2022-07-17T13:49:08;32.73;34.17
71839;SHT31;59687;37.520;15.068;2022-07-17T13:51:35;32.74;34.10
71839;SHT31;59687;37.520;15.068;2022-07-17T13:54:03;32.98;33.97
71839;SHT31;59687;37.520;15.068;2022-07-17T13:56:32;33.03;33.94
71839;SHT31;59687;37.520;15.068;2022-07-17T13:59:00;33.08;33.48
71839;SHT31;59687;37.520;15.068;2022-07-17T14:01:27;33.17;32.41
71839;SHT31;59687;37.520;15.068;2022-07-17T14:03:55;33.17;32.48
71839;SHT31;59687;37.520;15.068;2022-07-17T14:06:23;33.32;32.09
71839;SHT31;59687;37.520;15.068;2022-07-17T14:08:50;33.35;31.72
71839;SHT31;59687;37.520;15.068;2022-07-17T14:11:17;33.35;31.88
71839;SHT31;59687;37.520;15.068;2022-07-17T14:13:44;33.29;30.93
71839;SHT31;59687;37.520;15.068;2022-07-17T14:16:15;33.10;31.32
71839;SHT31;59687;37.520;15.068;2022-07-17T14:18:42;33.03;31.40
71839;SHT31;59687;37.520;15.068;2022-07-17T14:21:48;32.70;30.89
71839;SHT31;59687;37.520;15.068;2022-07-17T14:24:16;32.62;31.27
71839;SHT31;59687;37.520;15.068;2022-07-17T14:26:44;32.45;31.16
71839;SHT31;59687;37.520;15.068;2022-07-17T14:29:14;32.49;31.39
71839;SHT31;59687;37.520;15.068;2022-07-17T14:31:41;32.64;31.44
71839;SHT31;59687;37.520;15.068;2022-07-17T14:34:09;32.83;31.34
71839;SHT31;59687;37.520;15.068;2022-07-17T14:36:36;32.77;31.66
71839;SHT31;59687;37.520;15.068;2022-07-17T14:39:04;32.80;31.66
71839;SHT31;59687;37.520;15.068;2022-07-17T14:41:32;32.92;31.97
71839;SHT31;59687;37.520;15.068;2022-07-17T14:43:59;33.17;31.66
71839;SHT31;59687;37.520;15.068;2022-07-17T14:46:26;33.24;31.63
71839;SHT31;59687;37.520;15.068;2022-07-17T14:48:56;33.19;31.34
71839;SHT31;59687;37.520;15.068;2022-07-17T14:51:23;33.18;31.57
71839;SHT31;59687;37.520;15.068;2022-07-17T14:53:50;33.04;31.82
71839;SHT31;59687;37.520;15.068;2022-07-17T14:56:18;33.00;31.99
71839;SHT31;59687;37.520;15.068;2022-07-17T14:58:45;33.00;32.37
71839;SHT31;59687;37.520;15.068;2022-07-17T15:01:13;33.01;32.58
71839;SHT31;59687;37.520;15.068;2022-07-17T15:03:40;32.98;33.10
71839;SHT31;59687;37.520;15.068;2022-07-17T15:06:07;32.83;32.49
71839;SHT31;59687;37.520;15.068;2022-07-17T15:08:34;32.76;32.49
71839;SHT31;59687;37.520;15.068;2022-07-17T15:11:04;32.87;32.74
71839;SHT31;59687;37.520;15.068;2022-07-17T15:13:31;33.03;32.05
71839;SHT31;59687;37.520;15.068;2022-07-17T15:15:58;32.97;31.78
71839;SHT31;59687;37.520;15.068;2022-07-17T15:18:25;32.96;31.55
71839;SHT31;59687;37.520;15.068;2022-07-17T15:20:52;32.86;31.52
71839;SHT31;59687;37.520;15.068;2022-07-17T15:23:19;32.72;31.27
71839;SHT31;59687;37.520;15.068;2022-07-17T15:25:48;32.57;31.67
71839;SHT31;59687;37.520;15.068;2022-07-17T15:28:15;32.48;31.98
71839;SHT31;59687;37.520;15.068;2022-07-17T15:30:42;32.51;31.79
71839;SHT31;59687;37.520;15.068;2022-07-17T15:33:09;32.53;32.08
71839;SHT31;59687;37.520;15.068;2022-07-17T15:35:36;32.60;31.79
71839;SHT31;59687;37.520;15.068;2022-07-17T15:38:04;32.59;32.51
71839;SHT31;59687;37.520;15.068;2022-07-17T15:40:32;32.42;33.17
71839;SHT31;59687;37.520;15.068;2022-07-17T15:42:59;32.33;33.60
71839;SHT31;59687;37.520;15.068;2022-07-17T15:45:25;32.28;33.78
71839;SHT31;59687;37.520;15.068;2022-07-17T15:47:52;32.28;34.24
71839;SHT31;59687;37.520;15.068;2022-07-17T15:50:20;32.22;34.46